weather.gov     
National Weather Service

Terminal Aerodrome Forecast
NWS Homepage
This page is being discontinued on March 12, 2014.
The same data is available at this site. Please update your bookmarks.
Thank you, and we apologize for the inconvenience.
Please send an email to SR-SRH.Webmaster@noaa.gov with any concerns.


Current Version
Previous Version:    01  02  03  04  05  06  07  08  09  10  11  12  13  14  15  16  17  18  19  20  21  22  23  24  25  26  27  
[Printable]
382
FTUS43 KLMK 242300
TAFLEX
TAF
KLEX 242321Z 2500/2524 13007KT P6SM SCT120 BKN250
     FM250700 17012G20KT P6SM VCTS BKN050CB
      TEMPO 2507/2509 VRB12G24KT 3SM -TSRA BR OVC040CB
     FM250900 21014KT P6SM VCSH BKN025
     FM251700 28017G25KT P6SM BKN035=


U.S. Dept. of Commerce
NOAA National Weather Service
1325 East West Highway
Silver Spring, MD 20910
E-mail: w-nws.webmaster@noaa.gov
Page last modified: May 16, 2007
NATIONAL WEATHER SERVICE: for Safety, for Work, for Fun - FOR LIFE